Terminal Aerodrome Forecast
Issued by NWS Huntsville, AL

Home | Current Version | Previous Version | Text Only | Print | Product List | Glossary On
Versions: 1 2 3 4 5 6 7 8 9 10 11 12 13 14 15 16
000
FTUS44 KHUN 241123
TAFHSV
TAF
KHSV 241123Z 2412/2512 16010KT P6SM FEW045
     FM241600 19013G20KT P6SM SCT050
     FM250400 20010KT 5SM -SHRA VCTS BKN025CB OVC040
     FM250600 25008KT P6SM -SHRA SCT030 BKN060
     FM250700 30010KT P6SM SCT040=

USA.gov is the U.S. government's official web portal to all federal, state and local government web resources and services.